メインページ
METAR-TAF:

METAR-TAF

空港 :

カムループス, ブリティッシュコロンビア州, カナダ

緯度: 50-42N, 経度: 120-27W, 海抜: 345m

現時点の気象観測

当レポートは42分前の03:00(UTC)に作成
東/南東の風 2kt
気温 28°C
湿度 27%
気圧 1020 hPa
視程: 64.4km
高度12000ftの雲はほとんどない

METAR: CYKA 230300Z 11002KT 40SM FEW120 28/07 A3011 RMK AC1 AC TR SLP194 DENSITY ALT 2700FT

時間: 20:42 (03:42 UTC)

予報

当レポートは3時間4分前の00:38(UTC)に作成
予報は23日の 01時(UTC)から 23日の 13時(UTC)まで有効
変向風 3kt
視程: 10km
高度6000ftの雲はほとんどない

TAF: CYKA 230038Z 2301/2313 VRB03KT P6SM FEW060 RMK NXT FCST BY 230700Z

4,000以上の空港の気象観測と天気予報(METAR報とTAF報)

利用可能な観測所は地図上に黄色い丸と赤い丸で示す。

丸の上にカーソルを重ねると観測所名を参照できる。

次にクリックすると気象観測と天気予報を参照できる。

マップの切り替え:黒色「×」印の緑ボタンをクリックして拡大、「-」印の緑ボタンをクリックして縮小、緑色の三角印をクリックして隣りの地図に切り替え


METAR-TAF: